createdAt,value
2023-03-29T00:01:01.756Z,15.6
2023-03-29T00:11:01.627Z,15.0
2023-03-29T00:16:01.248Z,14.5
2023-03-29T00:21:01.696Z,13.8
2023-03-29T00:26:01.157Z,13.3
2023-03-29T00:31:05.667Z,12.2
2023-03-29T00:36:01.281Z,11.8
2023-03-29T00:41:03.710Z,12.0
2023-03-29T00:46:01.248Z,11.2
2023-03-29T00:56:01.243Z,10.6
2023-03-29T01:01:01.489Z,10.4
2023-03-29T01:06:01.192Z,10.2
2023-03-29T01:11:01.736Z,9.9
2023-03-29T01:16:01.268Z,9.9
2023-03-29T01:21:01.533Z,10.2
2023-03-29T01:26:01.170Z,9.7
2023-03-29T01:31:01.438Z,8.9
2023-03-29T01:36:01.287Z,8.5
2023-03-29T01:46:01.265Z,6.5
2023-03-29T01:51:01.982Z,6.3
2023-03-29T01:56:01.288Z,7.0
2023-03-29T02:01:01.642Z,7.6
2023-03-29T02:06:01.294Z,7.6
2023-03-29T02:11:01.563Z,8.2
2023-03-29T02:16:01.415Z,7.7
2023-03-29T02:21:01.683Z,6.6
2023-03-29T02:31:01.704Z,5.2
2023-03-29T02:36:01.271Z,5.5
2023-03-29T02:41:01.700Z,6.0
2023-03-29T02:46:01.173Z,6.2
2023-03-29T02:51:02.033Z,6.8
2023-03-29T02:56:01.275Z,6.9
2023-03-29T03:01:01.668Z,6.4
2023-03-29T03:06:01.222Z,6.4
2023-03-29T03:11:01.532Z,6.6
2023-03-29T03:17:04.957Z,6.2
2023-03-29T03:22:01.260Z,7.1
2023-03-29T03:27:01.154Z,8.0
2023-03-29T03:32:01.236Z,8.2
2023-03-29T03:37:01.950Z,8.9
2023-03-29T03:42:01.166Z,8.9
2023-03-29T03:47:01.321Z,8.8
2023-03-29T03:52:01.601Z,8.4
2023-03-29T03:58:01.288Z,8.7
2023-03-29T04:03:01.467Z,8.1
2023-03-29T04:08:01.169Z,8.8
2023-03-29T04:13:01.143Z,8.9
2023-03-29T04:18:01.519Z,8.4
2023-03-29T04:23:01.239Z,8.4
2023-03-29T04:28:01.167Z,9.3
2023-03-29T04:33:01.316Z,10.1
2023-03-29T04:38:01.809Z,10.5
2023-03-29T04:43:01.157Z,11.4
2023-03-29T04:48:01.325Z,11.3
2023-03-29T04:53:01.309Z,10.6
2023-03-29T04:58:01.272Z,9.6
2023-03-29T05:03:01.277Z,9.5
2023-03-29T05:08:01.286Z,10.1
2023-03-29T05:13:01.243Z,10.4
2023-03-29T05:19:01.246Z,10.4
2023-03-29T05:24:01.168Z,11.1
2023-03-29T05:34:01.162Z,12.0
2023-03-29T05:39:01.498Z,12.4
2023-03-29T05:44:01.202Z,13.7
2023-03-29T05:49:01.262Z,13.5
2023-03-29T05:54:01.172Z,14.7
2023-03-29T05:59:01.278Z,13.4
2023-03-29T06:04:01.347Z,15.5
2023-03-29T06:09:01.155Z,16.0
2023-03-29T06:14:01.174Z,15.8
2023-03-29T06:19:01.259Z,15.8
2023-03-29T06:24:01.294Z,16.0
2023-03-29T06:29:01.292Z,14.1
2023-03-29T06:34:01.198Z,13.0
2023-03-29T06:39:01.293Z,13.6
2023-03-29T06:44:01.730Z,12.6
2023-03-29T06:49:01.234Z,13.0
2023-03-29T06:55:01.257Z,12.6
2023-03-29T07:00:01.636Z,12.6
2023-03-29T07:05:01.433Z,12.8
2023-03-29T07:10:01.181Z,13.3
2023-03-29T07:15:01.754Z,12.5
2023-03-29T07:20:01.284Z,12.7
2023-03-29T07:25:01.201Z,12.8
2023-03-29T07:31:02.092Z,12.6
2023-03-29T07:36:01.246Z,12.6
2023-03-29T07:41:01.912Z,13.4
2023-03-29T07:51:02.361Z,13.6
2023-03-29T07:56:01.169Z,13.2
2023-03-29T08:01:01.990Z,12.7
2023-03-29T08:06:01.796Z,12.0
2023-03-29T08:11:01.622Z,12.0
2023-03-29T08:16:01.165Z,11.4
2023-03-29T08:21:01.615Z,11.4
2023-03-29T08:26:01.164Z,11.7
2023-03-29T08:31:01.796Z,12.4
2023-03-29T08:36:01.324Z,13.5
2023-03-29T08:41:01.722Z,14.8
2023-03-29T08:46:14.061Z,15.2
2023-03-29T08:51:01.777Z,15.8
2023-03-29T08:56:05.762Z,15.2
2023-03-29T09:01:01.858Z,13.5
2023-03-29T09:06:04.429Z,11.8
2023-03-29T09:11:01.706Z,11.2
2023-03-29T09:16:01.394Z,10.4
2023-03-29T09:21:01.798Z,9.9
2023-03-29T09:26:01.284Z,9.8
2023-03-29T09:36:06.687Z,9.6
2023-03-29T09:41:09.325Z,10.0
2023-03-29T09:46:05.468Z,10.2
2023-03-29T09:51:04.715Z,10.0
2023-03-29T09:56:01.708Z,10.5
2023-03-29T10:01:06.215Z,10.4
2023-03-29T10:06:02.664Z,10.0
2023-03-29T10:12:01.276Z,10.0
2023-03-29T10:17:03.839Z,11.2
2023-03-29T10:22:01.163Z,11.0
2023-03-29T10:27:01.162Z,10.8
2023-03-29T10:32:12.301Z,10.4
2023-03-29T10:37:01.579Z,9.4
2023-03-29T10:42:01.260Z,7.9
2023-03-29T10:47:01.276Z,7.1
2023-03-29T10:52:01.279Z,6.6
2023-03-29T11:07:01.171Z,6.4
2023-03-29T11:12:16.294Z,6.6
2023-03-29T11:17:01.156Z,6.9
2023-03-29T11:22:12.614Z,6.7
2023-03-29T11:27:01.278Z,6.7
2023-03-29T11:32:01.372Z,7.4
2023-03-29T11:37:01.166Z,6.9
2023-03-29T11:42:01.195Z,7.4
2023-03-29T11:47:01.314Z,8.0
2023-03-29T11:52:01.283Z,8.8
2023-03-29T11:57:01.272Z,9.1
2023-03-29T12:02:01.302Z,9.9
2023-03-29T12:07:01.708Z,9.4
2023-03-29T12:12:01.342Z,9.4
2023-03-29T12:17:01.621Z,8.9
2023-03-29T12:22:01.233Z,8.7
2023-03-29T12:27:16.730Z,8.6
2023-03-29T12:32:01.240Z,8.8
2023-03-29T12:37:01.220Z,8.7
2023-03-29T12:42:01.155Z,8.6
2023-03-29T12:47:01.854Z,8.6
2023-03-29T12:57:01.426Z,8.6
2023-03-29T13:07:01.286Z,9.6
2023-03-29T13:12:01.200Z,9.8
2023-03-29T13:17:18.594Z,10.5
2023-03-29T13:22:01.179Z,11.0
2023-03-29T13:27:06.408Z,11.2
2023-03-29T13:32:01.192Z,11.0
2023-03-29T13:37:01.260Z,11.9
2023-03-29T13:43:21.938Z,13.3
2023-03-29T13:48:22.474Z,14.6
2023-03-29T13:53:13.253Z,16.8
2023-03-29T13:58:27.019Z,18.6
2023-03-29T14:03:01.380Z,19.2
2023-03-29T14:08:01.188Z,18.9
2023-03-29T14:13:02.596Z,18.6
2023-03-29T14:18:01.332Z,17.1
2023-03-29T14:23:06.200Z,15.7
2023-03-29T14:28:02.872Z,14.4
2023-03-29T14:33:06.580Z,14.2
2023-03-29T14:38:01.163Z,13.7
2023-03-29T14:43:06.195Z,12.7
2023-03-29T14:48:06.532Z,13.4
2023-03-29T14:58:01.273Z,13.3
2023-03-29T15:03:06.417Z,11.5
2023-03-29T15:08:06.220Z,12.0
2023-03-29T15:13:01.215Z,11.2
2023-03-29T15:18:06.410Z,11.2
2023-03-29T15:23:19.086Z,11.1
2023-03-29T15:28:02.287Z,12.3
2023-03-29T15:33:01.350Z,11.8
2023-03-29T15:38:01.280Z,11.5
2023-03-29T15:43:01.179Z,11.0
2023-03-29T15:48:01.267Z,10.5
2023-03-29T15:58:06.718Z,10.5
2023-03-29T16:03:01.221Z,11.4
2023-03-29T16:08:01.193Z,11.5
2023-03-29T16:13:06.782Z,12.4
2023-03-29T16:18:01.453Z,12.6
2023-03-29T16:23:01.180Z,13.7
2023-03-29T16:28:01.195Z,13.4
2023-03-29T16:33:01.380Z,13.9
2023-03-29T16:48:01.593Z,17.1
2023-03-29T16:53:06.723Z,19.8
2023-03-29T16:58:01.156Z,21.6
2023-03-29T17:03:01.251Z,23.0
2023-03-29T17:08:01.248Z,25.0
2023-03-29T17:13:01.776Z,22.9
2023-03-29T17:18:01.245Z,21.9
2023-03-29T17:23:01.249Z,21.7
2023-03-29T17:28:02.180Z,21.0
2023-03-29T17:33:02.574Z,20.4
2023-03-29T17:38:01.363Z,20.8
2023-03-29T17:43:06.364Z,21.3
2023-03-29T17:48:07.595Z,22.6
2023-03-29T17:53:06.253Z,22.2
2023-03-29T17:58:06.196Z,23.1
2023-03-29T18:03:06.456Z,24.4
2023-03-29T18:08:02.195Z,24.5
2023-03-29T18:13:01.186Z,24.0
2023-03-29T18:18:01.279Z,25.4
2023-03-29T18:23:01.865Z,25.9
2023-03-29T18:28:01.261Z,25.7
2023-03-29T18:33:02.269Z,25.9
2023-03-29T18:38:01.623Z,25.9
2023-03-29T18:43:01.704Z,26.2
2023-03-29T18:48:01.419Z,26.7
2023-03-29T18:53:01.172Z,28.0
2023-03-29T18:58:01.257Z,29.4
2023-03-29T19:03:01.446Z,29.8
2023-03-29T19:08:01.176Z,29.8
2023-03-29T19:13:01.197Z,29.1
2023-03-29T19:18:01.460Z,28.2
2023-03-29T19:23:06.335Z,28.2
2023-03-29T19:28:01.168Z,28.2
2023-03-29T19:33:02.938Z,28.0
2023-03-29T19:38:06.174Z,28.8
2023-03-29T19:43:06.698Z,29.0
2023-03-29T19:48:04.665Z,28.1
2023-03-29T19:53:01.782Z,27.6
2023-03-29T19:58:01.162Z,27.8
2023-03-29T20:03:01.330Z,27.6
2023-03-29T20:08:06.214Z,27.0
2023-03-29T20:13:01.146Z,26.7
2023-03-29T20:18:01.238Z,26.2
2023-03-29T20:23:06.500Z,24.0
2023-03-29T20:28:02.450Z,22.2
2023-03-29T20:33:06.298Z,21.0
2023-03-29T20:38:01.370Z,19.5
2023-03-29T20:43:01.277Z,18.6
2023-03-29T20:48:01.592Z,18.7
2023-03-29T20:53:01.210Z,18.5
2023-03-29T20:58:06.268Z,18.1
2023-03-29T21:03:01.633Z,19.2
2023-03-29T21:08:02.364Z,19.3
2023-03-29T21:13:03.003Z,19.9
2023-03-29T21:18:01.367Z,20.2
2023-03-29T21:23:06.368Z,20.8
2023-03-29T21:28:01.781Z,20.3
2023-03-29T21:33:01.329Z,20.6
2023-03-29T21:38:06.333Z,19.8
2023-03-29T21:43:02.256Z,18.8
2023-03-29T21:48:01.260Z,17.9
2023-03-29T21:53:01.159Z,17.6
2023-03-29T22:03:01.339Z,17.8
2023-03-29T22:08:01.998Z,18.8
2023-03-29T22:13:01.170Z,20.3
2023-03-29T22:18:01.312Z,21.3
2023-03-29T22:23:01.355Z,21.9
2023-03-29T22:28:01.155Z,21.2
2023-03-29T22:33:03.212Z,21.2
2023-03-29T22:38:01.719Z,19.8
2023-03-29T22:43:06.214Z,19.6
2023-03-29T22:48:01.239Z,19.2
2023-03-29T22:53:01.239Z,20.3
2023-03-29T22:58:06.278Z,21.1
2023-03-29T23:03:02.040Z,21.6
2023-03-29T23:08:01.333Z,21.2
2023-03-29T23:13:01.168Z,21.6
2023-03-29T23:23:01.419Z,20.2
2023-03-29T23:28:01.362Z,20.8
2023-03-29T23:33:01.290Z,20.4
2023-03-29T23:38:02.090Z,19.7
2023-03-29T23:43:06.277Z,18.7
2023-03-29T23:48:06.236Z,18.5
2023-03-29T23:53:06.171Z,18.4
2023-03-29T23:58:01.170Z,18.2
